East Connersville, Indiana
Current Conditions -  °F | °C
As of 4:35 PM on Monday 24 Nov 2014 (Local Time) from KI67 Reporting Station
Overcast Overcast  
Wind Chill:   Ceiling: 3800
Heat Index:   Visibility: 10mi
Dew Point:   Wind: 16mph
Humidity: 61%   Direction: 230°SW
Pressure: 29.73"   Gusts: 24mph
Location:  39.645°N, 85.1744°W
Report Text: KI67 242135Z AUTO 23014G21KT 10SM OVC038 07/00 A2973 RMK AO1
Loading
Personal Weather Stations






























Interactive Weather Map New forecast layout! Learn more

10-Day Weather Forecast

Advertisements
Track Severe Weather on mobile